createdAt,value
2022-12-03T00:02:25.140Z,13.97
2022-12-03T00:04:52.420Z,14.20
2022-12-03T00:07:19.447Z,14.33
2022-12-03T00:09:46.338Z,14.57
2022-12-03T00:12:13.223Z,14.17
2022-12-03T00:14:44.416Z,15.00
2022-12-03T00:17:11.716Z,14.70
2022-12-03T00:19:38.653Z,15.20
2022-12-03T00:22:05.601Z,15.07
2022-12-03T00:24:32.720Z,15.43
2022-12-03T00:26:59.685Z,14.43
2022-12-03T00:29:26.597Z,15.63
2022-12-03T00:31:53.476Z,15.27
2022-12-03T00:34:20.462Z,16.33
2022-12-03T00:36:47.331Z,14.93
2022-12-03T00:39:14.243Z,15.30
2022-12-03T00:41:41.112Z,16.47
2022-12-03T00:44:33.740Z,17.37
2022-12-03T00:47:00.760Z,15.77
2022-12-03T00:49:27.794Z,15.20
2022-12-03T00:51:54.670Z,16.03
2022-12-03T00:54:24.475Z,16.63
2022-12-03T00:56:53.886Z,16.57
2022-12-03T00:59:20.738Z,16.73
2022-12-03T01:01:47.790Z,16.50
2022-12-03T01:04:14.749Z,15.93
2022-12-03T01:06:41.720Z,17.07
2022-12-03T01:09:08.703Z,16.70
2022-12-03T01:11:38.307Z,17.30
2022-12-03T01:14:16.830Z,16.00
2022-12-03T01:16:43.951Z,16.20
2022-12-03T01:19:15.854Z,16.80
2022-12-03T01:21:48.670Z,16.33
2022-12-03T01:24:16.110Z,17.63
2022-12-03T01:26:43.557Z,18.10
2022-12-03T01:29:10.958Z,18.10
2022-12-03T01:31:56.709Z,18.40
2022-12-03T01:34:23.812Z,16.80
2022-12-03T01:36:52.533Z,16.50
2022-12-03T01:39:20.141Z,16.73
2022-12-03T01:41:49.474Z,17.30
2022-12-03T01:44:23.494Z,17.73
2022-12-03T01:46:52.750Z,17.30
2022-12-03T01:49:23.267Z,17.57
2022-12-03T01:51:52.078Z,18.23
2022-12-03T01:54:22.419Z,17.40
2022-12-03T01:56:49.507Z,17.93
2022-12-03T01:59:21.556Z,17.77
2022-12-03T02:01:48.619Z,17.93
2022-12-03T02:04:17.320Z,18.60
2022-12-03T02:06:44.758Z,17.27
2022-12-03T02:09:13.798Z,16.73
2022-12-03T02:11:48.991Z,18.60
2022-12-03T02:14:21.735Z,16.83
2022-12-03T02:16:49.034Z,16.93
2022-12-03T02:19:26.753Z,17.70
2022-12-03T02:22:21.004Z,17.40
2022-12-03T02:25:00.364Z,17.13
2022-12-03T02:27:28.439Z,16.90
2022-12-03T02:29:55.347Z,17.67
2022-12-03T02:32:23.569Z,17.00
2022-12-03T02:34:52.299Z,16.43
2022-12-03T02:37:24.981Z,16.13
2022-12-03T02:39:55.383Z,17.03
2022-12-03T02:42:37.937Z,17.00
2022-12-03T02:45:39.422Z,16.90
2022-12-03T02:48:14.484Z,17.40
2022-12-03T02:50:55.549Z,17.60
2022-12-03T02:53:32.008Z,17.40
2022-12-03T02:56:01.452Z,16.73
2022-12-03T02:58:30.892Z,17.80
2022-12-03T03:00:59.564Z,17.17
2022-12-03T03:03:28.986Z,17.03
2022-12-03T03:05:59.214Z,17.40
2022-12-03T03:08:27.101Z,17.00
2022-12-03T03:10:55.098Z,18.83
2022-12-03T03:13:22.175Z,19.03
2022-12-03T03:15:49.391Z,19.00
2022-12-03T03:18:17.141Z,18.77
2022-12-03T03:20:45.002Z,18.73
2022-12-03T03:23:16.799Z,18.30
2022-12-03T03:25:47.766Z,18.33
2022-12-03T03:28:15.756Z,18.53
2022-12-03T03:30:43.678Z,17.83
2022-12-03T03:33:12.702Z,18.60
2022-12-03T03:35:40.252Z,19.70
2022-12-03T03:38:08.396Z,18.17
2022-12-03T03:40:35.602Z,17.87
2022-12-03T03:43:02.638Z,18.80
2022-12-03T03:45:29.893Z,17.77
2022-12-03T03:47:59.009Z,18.83
2022-12-03T03:50:28.415Z,18.17
2022-12-03T03:52:56.592Z,18.17
2022-12-03T03:55:23.864Z,18.90
2022-12-03T03:57:50.883Z,17.63
2022-12-03T04:00:18.192Z,18.70
2022-12-03T04:02:45.342Z,18.83
2022-12-03T04:05:20.808Z,19.20
2022-12-03T04:07:48.059Z,19.13
2022-12-03T04:11:01.470Z,18.20
2022-12-03T04:13:29.028Z,17.57
2022-12-03T04:15:55.891Z,17.80
2022-12-03T04:18:41.262Z,17.87
2022-12-03T04:21:27.170Z,19.33
2022-12-03T04:23:54.122Z,16.60
2022-12-03T04:26:39.464Z,18.10
2022-12-03T04:29:06.540Z,16.63
2022-12-03T04:31:51.932Z,18.00
2022-12-03T04:34:37.434Z,18.37
2022-12-03T04:37:04.743Z,17.87
2022-12-03T04:39:31.704Z,18.30
2022-12-03T04:41:58.719Z,17.83
2022-12-03T04:44:37.529Z,18.73
2022-12-03T04:47:19.127Z,17.27
2022-12-03T04:49:50.784Z,16.87
2022-12-03T04:52:19.838Z,17.33
2022-12-03T04:54:46.837Z,17.13
2022-12-03T04:57:13.800Z,16.23
2022-12-03T04:59:40.704Z,15.73
2022-12-03T05:02:08.866Z,16.67
2022-12-03T05:04:35.838Z,16.63
2022-12-03T05:07:02.760Z,17.63
2022-12-03T05:09:29.649Z,16.10
2022-12-03T05:11:56.565Z,16.87
2022-12-03T05:14:23.459Z,17.20
2022-12-03T05:16:50.364Z,16.77
2022-12-03T05:19:17.316Z,16.80
2022-12-03T05:21:44.171Z,17.07
2022-12-03T05:24:11.106Z,16.63
2022-12-03T05:26:38.051Z,17.37
2022-12-03T05:29:05.025Z,16.93
2022-12-03T05:31:32.049Z,17.20
2022-12-03T05:33:59.097Z,17.30
2022-12-03T05:36:26.230Z,15.87
2022-12-03T05:38:53.098Z,16.17
2022-12-03T05:41:38.483Z,16.57
2022-12-03T05:44:05.500Z,15.37
2022-12-03T05:46:32.954Z,15.07
2022-12-03T05:49:00.091Z,14.67
2022-12-03T05:51:27.185Z,14.23
2022-12-03T05:53:54.125Z,13.17
2022-12-03T05:56:20.979Z,13.23
2022-12-03T05:58:47.904Z,13.73
2022-12-03T06:01:14.829Z,14.37
2022-12-03T06:03:41.832Z,14.90
2022-12-03T06:06:19.032Z,14.90
2022-12-03T06:08:45.877Z,14.43
2022-12-03T06:11:12.769Z,15.57
2022-12-03T06:13:39.642Z,15.97
2022-12-03T06:16:06.719Z,16.57
2022-12-03T06:18:33.635Z,15.87
2022-12-03T06:21:00.506Z,16.17
2022-12-03T06:23:27.419Z,16.70
2022-12-03T06:25:54.354Z,16.47
2022-12-03T06:28:21.282Z,17.40
2022-12-03T06:30:48.200Z,17.30
2022-12-03T06:33:15.174Z,16.53
2022-12-03T06:35:42.163Z,15.70
2022-12-03T06:38:09.244Z,15.63
2022-12-03T06:40:38.285Z,16.00
2022-12-03T06:43:05.150Z,16.67
2022-12-03T06:45:32.009Z,17.33
2022-12-03T06:47:58.936Z,17.40
2022-12-03T06:50:25.820Z,16.80
2022-12-03T06:52:54.838Z,17.13
2022-12-03T06:55:21.953Z,17.73
2022-12-03T06:57:49.874Z,16.90
2022-12-03T07:00:17.021Z,17.63
2022-12-03T07:02:44.717Z,17.87
2022-12-03T07:05:13.756Z,18.27
2022-12-03T07:07:40.784Z,18.83
2022-12-03T07:10:08.221Z,19.70
2022-12-03T07:12:35.154Z,19.80
2022-12-03T07:15:02.033Z,20.07
2022-12-03T07:17:29.764Z,19.20
2022-12-03T07:19:59.713Z,18.07
2022-12-03T07:22:26.669Z,20.37
2022-12-03T07:24:53.655Z,17.83
2022-12-03T07:27:20.619Z,18.43
2022-12-03T07:29:47.600Z,16.33
2022-12-03T07:32:14.531Z,16.83
2022-12-03T07:34:41.400Z,18.50
2022-12-03T07:37:08.325Z,16.23
2022-12-03T07:39:35.269Z,16.00
2022-12-03T07:42:02.390Z,15.27
2022-12-03T07:44:31.670Z,14.93
2022-12-03T07:46:59.328Z,15.97
2022-12-03T07:49:27.023Z,15.60
2022-12-03T07:51:54.469Z,15.87
2022-12-03T07:54:22.333Z,16.67
2022-12-03T07:56:49.308Z,17.00
2022-12-03T07:59:17.082Z,16.60
2022-12-03T08:01:44.399Z,16.67
2022-12-03T08:04:12.985Z,17.33
2022-12-03T08:06:39.917Z,16.03
2022-12-03T08:09:09.913Z,16.10
2022-12-03T08:11:39.083Z,16.93
2022-12-03T08:14:14.529Z,16.83
2022-12-03T08:16:43.158Z,16.27
2022-12-03T08:19:15.929Z,15.77
2022-12-03T08:21:43.092Z,16.33
2022-12-03T08:24:19.221Z,17.10
2022-12-03T08:26:47.901Z,16.13
2022-12-03T08:29:18.583Z,16.27
2022-12-03T08:31:52.305Z,16.93
2022-12-03T08:34:27.140Z,15.60
2022-12-03T08:37:05.828Z,16.00
2022-12-03T08:39:35.769Z,15.70
2022-12-03T08:42:27.314Z,16.43
2022-12-03T08:44:55.783Z,16.73
2022-12-03T08:47:24.932Z,17.00
2022-12-03T08:49:55.656Z,17.17
2022-12-03T08:52:29.117Z,17.47
2022-12-03T08:54:57.553Z,15.97
2022-12-03T08:57:34.523Z,15.83
2022-12-03T09:00:19.622Z,15.87
2022-12-03T09:02:49.767Z,16.13
2022-12-03T09:05:29.399Z,16.23
2022-12-03T09:07:56.340Z,17.10
2022-12-03T09:10:23.368Z,16.57
2022-12-03T09:12:50.249Z,16.10
2022-12-03T09:15:17.271Z,17.53
2022-12-03T09:17:44.237Z,16.80
2022-12-03T09:20:11.568Z,17.30
2022-12-03T09:22:38.492Z,16.17
2022-12-03T09:25:05.835Z,16.77
2022-12-03T09:27:32.654Z,16.33
2022-12-03T09:29:59.539Z,17.07
2022-12-03T09:32:26.478Z,17.20
2022-12-03T09:34:53.925Z,16.53
2022-12-03T09:37:22.211Z,16.20
2022-12-03T09:39:49.237Z,16.23
2022-12-03T09:42:16.363Z,16.43
2022-12-03T09:44:43.927Z,16.33
2022-12-03T09:47:11.070Z,16.67
2022-12-03T09:49:40.738Z,16.57
2022-12-03T09:52:08.651Z,16.43
2022-12-03T09:54:37.719Z,16.50
2022-12-03T09:57:07.238Z,15.23
2022-12-03T09:59:35.159Z,16.37
2022-12-03T10:02:02.755Z,16.43
2022-12-03T10:04:30.542Z,17.00
2022-12-03T10:06:58.940Z,17.57
2022-12-03T10:09:29.017Z,17.40
2022-12-03T10:11:58.815Z,16.83
2022-12-03T10:14:26.476Z,16.80
2022-12-03T10:16:53.475Z,16.20
2022-12-03T10:19:27.553Z,16.63
2022-12-03T10:21:55.699Z,15.87
2022-12-03T10:24:32.152Z,16.50
2022-12-03T10:27:20.422Z,16.80
2022-12-03T10:30:01.462Z,16.70
2022-12-03T10:32:41.075Z,15.13
2022-12-03T10:35:20.086Z,16.00
2022-12-03T10:38:07.905Z,15.57
2022-12-03T10:40:37.892Z,16.93
2022-12-03T10:43:15.498Z,16.13
2022-12-03T10:45:43.216Z,16.37
2022-12-03T10:48:20.271Z,15.50
2022-12-03T10:51:13.613Z,15.63
2022-12-03T10:53:41.468Z,14.87
2022-12-03T10:56:14.886Z,16.03
2022-12-03T10:58:42.070Z,15.57
2022-12-03T11:01:19.068Z,15.07
2022-12-03T11:03:46.809Z,16.10
2022-12-03T11:06:16.348Z,15.40
2022-12-03T11:08:47.438Z,15.20
2022-12-03T11:11:25.038Z,14.17
2022-12-03T11:13:54.743Z,15.07
2022-12-03T11:16:40.115Z,15.50
2022-12-03T11:19:13.035Z,14.93
2022-12-03T11:22:04.906Z,15.13
2022-12-03T11:24:35.901Z,14.53
2022-12-03T11:27:02.862Z,14.40
2022-12-03T11:29:57.061Z,14.40
2022-12-03T11:32:39.628Z,13.73
2022-12-03T11:35:15.791Z,13.77
2022-12-03T11:37:42.736Z,13.13
2022-12-03T11:40:18.696Z,13.03
2022-12-03T11:42:47.558Z,13.00
2022-12-03T11:45:37.561Z,12.83
2022-12-03T11:48:14.270Z,14.40
2022-12-03T11:50:53.431Z,13.73
2022-12-03T11:53:31.182Z,13.63
2022-12-03T11:56:08.916Z,13.40
2022-12-03T11:58:38.346Z,14.37
2022-12-03T12:01:08.146Z,13.23
2022-12-03T12:03:41.671Z,13.57
2022-12-03T12:06:11.336Z,13.77
2022-12-03T12:08:41.131Z,12.87
2022-12-03T12:11:31.121Z,11.97
2022-12-03T12:14:00.384Z,12.63
2022-12-03T12:16:51.043Z,10.87
2022-12-03T12:19:43.295Z,11.30
2022-12-03T12:22:28.612Z,11.53
2022-12-03T12:25:00.920Z,11.97
2022-12-03T12:27:45.013Z,11.83
2022-12-03T12:30:17.753Z,11.47
2022-12-03T12:32:47.330Z,11.47
2022-12-03T12:35:27.715Z,11.60
2022-12-03T12:38:01.843Z,11.13
2022-12-03T12:40:32.352Z,11.63
2022-12-03T12:43:08.272Z,12.10
2022-12-03T12:45:43.731Z,12.40
2022-12-03T12:48:16.590Z,12.10
2022-12-03T12:50:46.061Z,12.30
2022-12-03T12:53:26.810Z,12.10
2022-12-03T12:56:21.945Z,11.73
2022-12-03T12:58:49.425Z,12.17
2022-12-03T13:01:29.786Z,12.27
2022-12-03T13:03:57.274Z,12.23
2022-12-03T13:06:27.993Z,11.87
2022-12-03T13:08:55.659Z,11.87
2022-12-03T13:11:25.706Z,11.63
2022-12-03T13:13:52.906Z,12.53
2022-12-03T13:16:26.492Z,12.20
2022-12-03T13:18:58.484Z,11.97
2022-12-03T13:21:38.146Z,12.93
2022-12-03T13:24:35.519Z,13.00
2022-12-03T13:27:25.721Z,14.00
2022-12-03T13:30:23.479Z,14.83
2022-12-03T13:32:53.287Z,13.20
2022-12-03T13:35:36.115Z,13.97
2022-12-03T13:38:10.144Z,13.40
2022-12-03T13:40:37.772Z,16.27
2022-12-03T13:43:10.241Z,15.53
2022-12-03T13:45:41.409Z,13.77
2022-12-03T13:48:25.166Z,13.73
2022-12-03T13:50:53.162Z,13.60
2022-12-03T13:53:28.077Z,13.20
2022-12-03T13:56:32.555Z,13.37
2022-12-03T13:59:01.017Z,12.80
2022-12-03T14:01:28.724Z,13.83
2022-12-03T14:03:56.573Z,13.73
2022-12-03T14:06:23.447Z,13.87
2022-12-03T14:08:50.410Z,14.00
2022-12-03T14:11:35.730Z,13.37
2022-12-03T14:14:02.591Z,13.63
2022-12-03T14:16:29.651Z,13.97
2022-12-03T14:18:56.605Z,12.70
2022-12-03T14:21:23.483Z,14.00
2022-12-03T14:23:50.315Z,13.90
2022-12-03T14:26:17.230Z,13.07
2022-12-03T14:28:44.107Z,13.10
2022-12-03T14:31:11.118Z,14.17
2022-12-03T14:33:37.980Z,14.17
2022-12-03T14:36:05.181Z,14.30
2022-12-03T14:38:32.230Z,15.27
2022-12-03T14:40:59.211Z,14.13
2022-12-03T14:43:26.080Z,13.73
2022-12-03T14:45:52.997Z,14.40
2022-12-03T14:48:21.065Z,15.80
2022-12-03T14:50:47.935Z,15.03
2022-12-03T14:53:14.773Z,14.77
2022-12-03T14:55:41.611Z,14.50
2022-12-03T14:58:08.434Z,14.07
2022-12-03T15:00:35.358Z,14.50
2022-12-03T15:03:02.233Z,14.00
2022-12-03T15:05:29.351Z,14.07
2022-12-03T15:07:56.436Z,15.17
2022-12-03T15:10:23.421Z,14.60
2022-12-03T15:12:50.253Z,14.10
2022-12-03T15:15:17.142Z,13.93
2022-12-03T15:17:45.714Z,23.07
2022-12-03T15:20:13.250Z,23.13
2022-12-03T15:22:40.188Z,31.63
2022-12-03T15:25:07.783Z,30.73
2022-12-03T15:27:34.693Z,17.97
2022-12-03T15:30:01.791Z,14.90
2022-12-03T15:32:28.739Z,14.80
2022-12-03T15:34:55.600Z,14.03
2022-12-03T15:37:22.513Z,13.47
2022-12-03T15:39:49.437Z,14.47
2022-12-03T15:42:16.345Z,15.63
2022-12-03T15:44:43.169Z,15.03
2022-12-03T15:47:10.037Z,14.27
2022-12-03T15:49:36.887Z,15.60
2022-12-03T15:52:04.610Z,15.80
2022-12-03T15:54:31.558Z,15.80
2022-12-03T15:56:58.413Z,16.63
2022-12-03T15:59:27.329Z,15.77
2022-12-03T16:01:54.412Z,17.03
2022-12-03T16:04:21.367Z,17.90
2022-12-03T16:06:48.217Z,17.40
2022-12-03T16:09:15.088Z,17.17
2022-12-03T16:11:41.997Z,16.73
2022-12-03T16:14:08.889Z,18.13
2022-12-03T16:16:35.746Z,17.27
2022-12-03T16:19:02.732Z,17.60
2022-12-03T16:21:29.628Z,17.03
2022-12-03T16:23:56.565Z,18.00
2022-12-03T16:26:23.470Z,17.63
2022-12-03T16:28:50.342Z,17.97
2022-12-03T16:31:18.936Z,18.43
2022-12-03T16:33:45.945Z,18.30
2022-12-03T16:36:12.961Z,18.07
2022-12-03T16:38:40.008Z,19.50
2022-12-03T16:41:06.853Z,18.60
2022-12-03T16:43:38.449Z,18.93
2022-12-03T16:46:15.242Z,18.47
2022-12-03T16:48:42.120Z,19.20
2022-12-03T16:51:09.733Z,18.03
2022-12-03T16:53:36.718Z,18.00
2022-12-03T16:56:03.834Z,17.63
2022-12-03T16:58:30.784Z,18.67
2022-12-03T17:00:57.683Z,18.37
2022-12-03T17:03:28.968Z,18.87
2022-12-03T17:06:00.367Z,18.80
2022-12-03T17:08:27.298Z,17.60
2022-12-03T17:10:54.315Z,18.47
2022-12-03T17:13:23.170Z,17.40
2022-12-03T17:15:50.760Z,17.73
2022-12-03T17:18:17.736Z,16.87
2022-12-03T17:20:44.697Z,16.23
2022-12-03T17:23:12.317Z,16.97
2022-12-03T17:25:39.199Z,16.80
2022-12-03T17:28:06.123Z,15.97
2022-12-03T17:30:33.025Z,15.57
2022-12-03T17:32:59.902Z,17.33
2022-12-03T17:35:28.552Z,17.77
2022-12-03T17:37:55.637Z,17.73
2022-12-03T17:40:22.493Z,16.77
2022-12-03T17:42:49.476Z,15.97
2022-12-03T17:45:16.393Z,17.03
2022-12-03T17:47:43.244Z,17.50
2022-12-03T17:50:10.556Z,16.17
2022-12-03T17:52:37.406Z,17.03
2022-12-03T17:55:16.288Z,17.43
2022-12-03T17:57:44.846Z,18.17
2022-12-03T18:00:12.383Z,16.83
2022-12-03T18:02:39.224Z,18.10
2022-12-03T18:05:06.343Z,17.60
2022-12-03T18:07:33.227Z,18.00
2022-12-03T18:10:00.195Z,17.60
2022-12-03T18:12:27.094Z,18.13
2022-12-03T18:14:53.937Z,18.30
2022-12-03T18:17:20.783Z,17.03
2022-12-03T18:19:47.843Z,16.47
2022-12-03T18:22:14.826Z,16.27
2022-12-03T18:24:44.017Z,15.77
2022-12-03T18:27:12.024Z,15.97
2022-12-03T18:29:38.872Z,15.87
2022-12-03T18:32:27.058Z,15.63
2022-12-03T18:34:55.419Z,15.37
2022-12-03T18:37:23.563Z,15.93
2022-12-03T18:39:50.415Z,16.03
2022-12-03T18:42:19.557Z,15.33
2022-12-03T18:44:49.869Z,14.53
2022-12-03T18:47:20.653Z,16.83
2022-12-03T18:49:47.854Z,15.20
2022-12-03T18:52:20.374Z,15.23
2022-12-03T18:54:48.060Z,15.57
2022-12-03T18:57:15.585Z,15.03
2022-12-03T18:59:42.713Z,13.53
2022-12-03T19:02:38.464Z,13.93
2022-12-03T19:05:03.779Z,15.57
2022-12-03T19:07:30.797Z,15.20
2022-12-03T19:09:57.832Z,14.93
2022-12-03T19:12:24.815Z,16.07
2022-12-03T19:14:51.809Z,15.60
2022-12-03T19:17:18.687Z,15.53
2022-12-03T19:19:46.476Z,16.67
2022-12-03T19:22:13.407Z,15.67
2022-12-03T19:24:40.249Z,15.20
2022-12-03T19:27:07.108Z,16.00
2022-12-03T19:29:33.952Z,14.13
2022-12-03T19:32:01.010Z,15.70
2022-12-03T19:34:28.143Z,15.97
2022-12-03T19:36:55.065Z,15.37
2022-12-03T19:39:22.024Z,16.10
2022-12-03T19:41:48.887Z,16.27
2022-12-03T19:44:17.637Z,15.53
2022-12-03T19:46:45.021Z,15.20
2022-12-03T19:49:12.022Z,14.80
2022-12-03T19:51:39.067Z,15.30
2022-12-03T19:54:07.625Z,14.90
2022-12-03T19:56:35.219Z,13.70
2022-12-03T19:59:02.250Z,13.97
2022-12-03T20:01:32.218Z,15.97
2022-12-03T20:04:02.806Z,16.17
2022-12-03T20:06:32.730Z,15.47
2022-12-03T20:09:02.176Z,15.30
2022-12-03T20:11:31.970Z,16.10
2022-12-03T20:14:01.849Z,15.87
2022-12-03T20:16:29.579Z,15.87
2022-12-03T20:18:59.186Z,16.00
2022-12-03T20:21:27.156Z,15.93
2022-12-03T20:23:54.023Z,16.47
2022-12-03T20:26:22.243Z,16.20
2022-12-03T20:28:50.357Z,15.80
2022-12-03T20:31:20.011Z,16.30
2022-12-03T20:33:49.338Z,14.93
2022-12-03T20:36:17.937Z,14.57
2022-12-03T20:38:45.333Z,14.63
2022-12-03T20:41:18.583Z,14.90
2022-12-03T20:43:45.826Z,14.73
2022-12-03T20:46:20.464Z,15.17
2022-12-03T20:48:47.981Z,15.60
2022-12-03T20:51:17.338Z,14.80
2022-12-03T20:53:44.666Z,14.67
2022-12-03T20:56:18.337Z,14.53
2022-12-03T20:58:45.285Z,14.60
2022-12-03T21:01:16.156Z,14.43
2022-12-03T21:03:44.246Z,14.20
2022-12-03T21:06:12.001Z,14.87
2022-12-03T21:08:42.193Z,14.80
2022-12-03T21:11:15.679Z,14.63
2022-12-03T21:13:44.092Z,13.57
2022-12-03T21:16:16.090Z,14.70
2022-12-03T21:18:43.296Z,14.80
2022-12-03T21:21:15.584Z,14.50
2022-12-03T21:23:43.639Z,14.87
2022-12-03T21:26:14.476Z,14.63
2022-12-03T21:28:46.046Z,14.40
2022-12-03T21:31:15.947Z,13.97
2022-12-03T21:33:43.248Z,15.10
2022-12-03T21:36:11.162Z,14.33
2022-12-03T21:38:38.459Z,14.40
2022-12-03T21:41:05.921Z,14.23
2022-12-03T21:43:33.924Z,13.60
2022-12-03T21:46:05.306Z,13.63
2022-12-03T21:48:52.230Z,13.93
2022-12-03T21:51:19.706Z,15.57
2022-12-03T21:53:46.659Z,14.80
2022-12-03T21:56:16.703Z,13.67
2022-12-03T21:58:44.780Z,14.87
2022-12-03T22:01:21.637Z,13.87
2022-12-03T22:03:49.045Z,14.60
2022-12-03T22:06:17.023Z,14.90
2022-12-03T22:08:44.414Z,14.83
2022-12-03T22:11:14.897Z,14.73
2022-12-03T22:13:42.187Z,14.40
2022-12-03T22:16:11.505Z,14.47
2022-12-03T22:18:38.830Z,14.40
2022-12-03T22:21:07.221Z,13.60
2022-12-03T22:23:34.647Z,14.40
2022-12-03T22:26:05.080Z,15.33
2022-12-03T22:28:32.985Z,14.07
2022-12-03T22:31:00.688Z,13.47
2022-12-03T22:33:27.572Z,13.77
2022-12-03T22:35:59.742Z,13.73
2022-12-03T22:38:28.306Z,13.93
2022-12-03T22:40:55.284Z,14.10
2022-12-03T22:43:22.306Z,13.47
2022-12-03T22:45:53.687Z,14.10
2022-12-03T22:48:22.053Z,14.33
2022-12-03T22:50:50.596Z,13.83
2022-12-03T22:53:18.394Z,14.37
2022-12-03T22:55:45.333Z,15.67
2022-12-03T22:58:12.243Z,14.67
2022-12-03T23:00:41.249Z,13.80
2022-12-03T23:03:08.458Z,14.50
2022-12-03T23:05:38.439Z,14.47
2022-12-03T23:08:11.645Z,15.57
2022-12-03T23:10:41.503Z,15.13
2022-12-03T23:13:08.805Z,14.73
2022-12-03T23:15:35.753Z,15.43
2022-12-03T23:18:02.940Z,15.13
2022-12-03T23:20:30.043Z,13.67
2022-12-03T23:22:56.848Z,14.17
2022-12-03T23:25:23.702Z,14.67
2022-12-03T23:27:50.622Z,13.77
2022-12-03T23:30:17.585Z,13.87
2022-12-03T23:32:44.545Z,13.87
2022-12-03T23:35:12.626Z,14.37
2022-12-03T23:37:44.532Z,13.83
2022-12-03T23:40:12.318Z,14.83
2022-12-03T23:42:39.110Z,15.27
2022-12-03T23:45:06.449Z,15.00
2022-12-03T23:47:33.268Z,14.77
2022-12-03T23:50:00.106Z,15.13
2022-12-03T23:52:27.082Z,14.80
2022-12-03T23:54:53.930Z,15.47
2022-12-03T23:57:20.825Z,16.17
2022-12-03T23:59:47.671Z,16.43
